createdAt,value
2019-04-27T00:01:05.248Z,81.52
2019-04-27T00:03:36.512Z,81.43
2019-04-27T00:06:05.446Z,81.75
2019-04-27T00:08:35.655Z,81.26
2019-04-27T00:11:05.029Z,81.48
2019-04-27T00:13:36.271Z,81.76
2019-04-27T00:16:04.051Z,81.61
2019-04-27T00:18:34.193Z,81.36
2019-04-27T00:21:03.600Z,81.58
2019-04-27T00:26:13.087Z,82.11
2019-04-27T00:28:43.416Z,82.06
2019-04-27T00:31:13.185Z,82.49
2019-04-27T00:33:43.468Z,82.22
2019-04-27T00:36:13.088Z,82.33
2019-04-27T00:38:43.488Z,82.35
2019-04-27T00:41:11.740Z,82.27
2019-04-27T00:43:42.719Z,82.46
2019-04-27T00:46:11.587Z,81.88
2019-04-27T00:48:43.265Z,81.89
2019-04-27T00:51:14.193Z,81.81
2019-04-27T00:53:43.368Z,81.52
2019-04-27T00:56:13.866Z,81.83
2019-04-27T00:58:43.372Z,81.83
2019-04-27T01:01:12.679Z,81.67
2019-04-27T01:03:43.098Z,81.70
2019-04-27T01:08:51.542Z,81.80
2019-04-27T01:11:22.699Z,81.62
2019-04-27T01:13:53.651Z,81.61
2019-04-27T01:16:24.006Z,81.73
2019-04-27T01:18:51.611Z,81.69
2019-04-27T01:21:21.932Z,82.67
2019-04-27T01:23:51.858Z,82.38
2019-04-27T01:26:22.152Z,81.90
2019-04-27T01:28:52.083Z,82.00
2019-04-27T01:31:22.285Z,82.02
2019-04-27T01:33:52.214Z,82.40
2019-04-27T01:36:22.159Z,82.69
2019-04-27T01:38:52.077Z,83.28
2019-04-27T01:41:22.029Z,82.70
2019-04-27T01:43:51.948Z,82.78
2019-04-27T01:46:22.198Z,82.41
2019-04-27T01:48:52.145Z,82.64
2019-04-27T01:51:22.051Z,83.05
2019-04-27T01:53:52.326Z,82.91
2019-04-27T01:56:22.541Z,83.31
2019-04-27T01:58:52.502Z,83.57
2019-04-27T02:01:22.444Z,83.14
2019-04-27T02:03:52.700Z,83.06
2019-04-27T02:06:22.634Z,83.23
2019-04-27T02:08:52.580Z,82.62
2019-04-27T02:11:22.842Z,82.36
2019-04-27T02:13:52.794Z,82.55
2019-04-27T02:16:22.717Z,83.01
2019-04-27T02:18:52.646Z,83.02
2019-04-27T02:21:22.573Z,82.55
2019-04-27T02:23:52.558Z,83.14
2019-04-27T02:26:22.481Z,82.92
2019-04-27T02:28:52.425Z,82.88
2019-04-27T02:31:22.662Z,82.29
2019-04-27T02:33:52.593Z,82.70
2019-04-27T02:36:22.511Z,82.96
2019-04-27T02:38:52.802Z,82.68
2019-04-27T02:41:22.734Z,82.76
2019-04-27T02:43:52.676Z,82.00
2019-04-27T02:46:22.596Z,82.60
2019-04-27T02:48:59.605Z,82.84
2019-04-27T02:51:22.477Z,82.93
2019-04-27T02:53:52.474Z,83.41
2019-04-27T02:56:22.487Z,83.39
2019-04-27T02:58:52.422Z,83.25
2019-04-27T03:01:22.606Z,83.07
2019-04-27T03:03:52.533Z,82.29
2019-04-27T03:06:22.473Z,82.67
2019-04-27T03:08:54.144Z,82.52
2019-04-27T03:11:23.396Z,82.77
2019-04-27T03:13:52.539Z,81.16
2019-04-27T03:16:22.463Z,81.29
2019-04-27T03:19:09.710Z,81.65
2019-04-27T03:21:22.672Z,81.63
2019-04-27T03:23:52.611Z,81.11
2019-04-27T03:26:22.788Z,80.31
2019-04-27T03:28:53.009Z,81.04
2019-04-27T03:31:22.926Z,80.83
2019-04-27T03:33:58.933Z,82.61
2019-04-27T03:36:22.780Z,83.16
2019-04-27T03:38:52.717Z,81.92
2019-04-27T03:41:22.651Z,82.27
2019-04-27T03:43:52.572Z,83.86
2019-04-27T03:46:22.525Z,84.36
2019-04-27T03:48:52.466Z,83.71
2019-04-27T03:51:22.641Z,82.91
2019-04-27T03:53:52.861Z,82.87
2019-04-27T03:56:23.084Z,83.16
2019-04-27T03:58:53.036Z,83.35
2019-04-27T04:01:22.958Z,83.14
2019-04-27T04:03:52.907Z,83.10
2019-04-27T04:06:22.832Z,82.90
2019-04-27T04:08:55.070Z,83.23
2019-04-27T04:11:22.687Z,82.76
2019-04-27T04:13:52.889Z,83.19
2019-04-27T04:16:22.845Z,81.89
2019-04-27T04:18:52.780Z,82.03
2019-04-27T04:21:22.724Z,82.15
2019-04-27T04:23:52.645Z,81.81
2019-04-27T04:26:22.572Z,82.17
2019-04-27T04:28:52.495Z,81.87
2019-04-27T04:31:22.433Z,81.85
2019-04-27T04:33:52.424Z,81.43
2019-04-27T04:36:22.367Z,80.70
2019-04-27T04:38:52.283Z,80.64
2019-04-27T04:41:22.227Z,81.17
2019-04-27T04:43:52.136Z,81.30
2019-04-27T04:46:22.823Z,81.31
2019-04-27T04:48:52.002Z,81.39
2019-04-27T04:51:21.953Z,81.24
2019-04-27T04:53:52.080Z,81.14
2019-04-27T04:56:22.119Z,80.98
2019-04-27T04:58:52.341Z,80.81
2019-04-27T05:01:22.290Z,81.16
2019-04-27T05:03:52.199Z,81.10
2019-04-27T05:06:25.392Z,81.11
2019-04-27T05:08:52.380Z,80.42
2019-04-27T05:11:22.294Z,80.24
2019-04-27T05:13:52.538Z,79.97
2019-04-27T05:16:22.480Z,79.94
2019-04-27T05:18:52.394Z,79.82
2019-04-27T05:21:22.686Z,79.26
2019-04-27T05:23:52.902Z,79.18
2019-04-27T05:26:23.143Z,79.17
2019-04-27T05:28:53.359Z,79.26
2019-04-27T05:31:23.514Z,79.38
2019-04-27T05:33:53.582Z,78.85
2019-04-27T05:36:23.507Z,78.69
2019-04-27T05:38:53.431Z,79.03
2019-04-27T05:41:23.628Z,78.69
2019-04-27T05:46:35.706Z,77.96
2019-04-27T05:49:06.290Z,78.13
2019-04-27T05:51:37.122Z,77.69
2019-04-27T05:54:03.592Z,77.10
2019-04-27T05:56:33.512Z,77.17
2019-04-27T05:59:03.417Z,76.97
2019-04-27T06:01:33.353Z,76.71
2019-04-27T06:04:03.594Z,75.64
2019-04-27T06:06:33.815Z,75.12
2019-04-27T06:09:04.043Z,75.09
2019-04-27T06:11:33.985Z,74.13
2019-04-27T06:14:04.174Z,73.97
2019-04-27T06:16:34.395Z,72.99
2019-04-27T06:19:04.325Z,72.15
2019-04-27T06:21:34.286Z,72.64
2019-04-27T06:24:04.535Z,72.31
2019-04-27T06:26:34.466Z,70.89
2019-04-27T06:29:04.405Z,70.36
2019-04-27T06:31:34.329Z,71.63
2019-04-27T06:34:04.605Z,70.99
2019-04-27T06:36:34.535Z,69.68
2019-04-27T06:39:04.484Z,70.37
2019-04-27T06:41:34.415Z,69.50
2019-04-27T06:44:04.380Z,70.55
2019-04-27T06:46:34.313Z,68.65
2019-04-27T06:49:04.277Z,69.03
2019-04-27T06:54:13.855Z,68.57
2019-04-27T06:56:43.758Z,68.64
2019-04-27T06:59:13.976Z,68.02
2019-04-27T07:04:23.525Z,66.67
2019-04-27T07:06:56.126Z,66.32
2019-04-27T07:09:23.660Z,66.79
2019-04-27T07:11:53.881Z,65.70
2019-04-27T07:14:23.811Z,66.34
2019-04-27T07:16:53.726Z,64.12
2019-04-27T07:19:24.026Z,65.56
2019-04-27T07:21:54.251Z,65.35
2019-04-27T07:24:24.186Z,65.96
2019-04-27T07:26:54.381Z,65.75
2019-04-27T07:29:24.603Z,65.40
2019-04-27T07:34:33.966Z,63.74
2019-04-27T07:37:03.776Z,64.66
2019-04-27T07:39:33.709Z,64.36
2019-04-27T07:42:03.728Z,64.57
2019-04-27T07:44:33.654Z,65.89
2019-04-27T07:47:03.928Z,65.09
2019-04-27T07:49:33.891Z,65.85
2019-04-27T07:52:04.164Z,66.21
2019-04-27T07:54:34.094Z,66.40
2019-04-27T07:57:04.302Z,65.82
2019-04-27T07:59:34.263Z,66.40
2019-04-27T08:02:04.179Z,66.72
2019-04-27T08:04:34.139Z,64.95
2019-04-27T08:07:04.373Z,63.40
2019-04-27T08:09:34.596Z,61.65
2019-04-27T08:12:07.516Z,61.67
2019-04-27T08:14:38.486Z,64.09
2019-04-27T08:17:07.549Z,64.19
2019-04-27T08:19:39.296Z,62.65
2019-04-27T08:22:07.432Z,62.16
2019-04-27T08:24:39.396Z,62.47
2019-04-27T08:27:07.380Z,60.15
2019-04-27T08:29:37.330Z,61.16
2019-04-27T08:32:07.238Z,60.99
2019-04-27T08:34:37.178Z,59.16
2019-04-27T08:37:09.075Z,58.58
2019-04-27T08:39:37.047Z,60.24
2019-04-27T08:42:06.967Z,59.73
2019-04-27T08:44:37.269Z,58.15
2019-04-27T08:47:09.080Z,59.04
2019-04-27T08:49:39.277Z,60.10
2019-04-27T08:52:09.209Z,58.92
2019-04-27T08:54:39.248Z,57.48
2019-04-27T08:57:09.533Z,55.98
2019-04-27T08:59:39.263Z,53.52
2019-04-27T09:02:08.806Z,55.47
2019-04-27T09:04:39.256Z,57.60
2019-04-27T09:07:08.839Z,59.04
2019-04-27T09:09:39.581Z,57.96
2019-04-27T09:12:09.485Z,59.76
2019-04-27T09:14:38.994Z,59.26
2019-04-27T09:17:09.566Z,56.45
2019-04-27T09:19:39.359Z,56.18
2019-04-27T09:24:49.427Z,54.15
2019-04-27T09:29:58.879Z,53.64
2019-04-27T09:32:28.951Z,53.83
2019-04-27T09:34:57.501Z,53.49
2019-04-27T09:37:27.579Z,50.79
2019-04-27T09:39:57.690Z,52.12
2019-04-27T09:42:27.622Z,50.79
2019-04-27T09:44:57.907Z,50.44
2019-04-27T09:47:28.131Z,49.51
2019-04-27T09:49:58.058Z,50.42
2019-04-27T09:52:28.708Z,49.86
2019-04-27T09:54:57.908Z,49.97
2019-04-27T09:57:28.298Z,50.29
2019-04-27T09:59:58.232Z,49.59
2019-04-27T10:07:47.623Z,47.88
2019-04-27T10:10:16.847Z,47.71
2019-04-27T10:12:47.139Z,49.30
2019-04-27T10:15:17.067Z,48.73
2019-04-27T10:17:47.000Z,48.71
2019-04-27T10:20:16.929Z,48.66
2019-04-27T10:25:25.913Z,53.00
2019-04-27T10:27:55.851Z,51.20
2019-04-27T10:30:25.862Z,48.31
2019-04-27T10:32:55.958Z,46.74
2019-04-27T10:35:26.096Z,47.25
2019-04-27T10:37:56.089Z,47.16
2019-04-27T10:40:26.457Z,45.68
2019-04-27T10:42:56.524Z,46.11
2019-04-27T10:45:26.437Z,46.34
2019-04-27T10:47:56.385Z,46.58
2019-04-27T10:50:26.685Z,45.97
2019-04-27T10:52:59.109Z,46.25
2019-04-27T10:55:26.627Z,45.95
2019-04-27T10:57:56.825Z,43.83
2019-04-27T11:00:26.764Z,44.72
2019-04-27T11:02:58.376Z,42.98
2019-04-27T11:05:30.935Z,44.03
2019-04-27T11:10:36.113Z,44.17
2019-04-27T11:13:06.313Z,44.06
2019-04-27T11:15:37.106Z,43.56
2019-04-27T11:18:06.362Z,44.19
2019-04-27T11:20:36.336Z,42.10
2019-04-27T11:23:09.188Z,42.47
2019-04-27T11:25:36.572Z,42.22
2019-04-27T11:30:45.977Z,45.23
2019-04-27T11:33:16.316Z,44.70
2019-04-27T11:35:46.978Z,43.65
2019-04-27T11:38:16.753Z,43.63
2019-04-27T11:40:46.643Z,43.62
2019-04-27T11:45:55.890Z,42.07
2019-04-27T11:48:26.262Z,43.97
2019-04-27T11:50:56.033Z,42.71
2019-04-27T11:53:26.183Z,43.12
2019-04-27T12:01:13.574Z,40.52
2019-04-27T12:03:43.834Z,43.73
2019-04-27T12:06:15.673Z,46.51
2019-04-27T12:08:45.326Z,42.99
2019-04-27T12:11:13.974Z,43.20
2019-04-27T12:13:43.923Z,42.18
2019-04-27T12:16:15.591Z,43.59
2019-04-27T12:18:44.160Z,42.41
2019-04-27T12:21:14.064Z,43.38
2019-04-27T12:23:44.362Z,41.76
2019-04-27T12:26:15.847Z,42.25
2019-04-27T12:28:45.962Z,41.09
2019-04-27T12:31:16.310Z,43.79
2019-04-27T12:33:46.041Z,47.38
2019-04-27T12:36:15.788Z,45.11
2019-04-27T12:38:46.820Z,46.80
2019-04-27T12:41:16.449Z,47.25
2019-04-27T12:46:25.744Z,46.17
2019-04-27T12:48:57.197Z,44.65
2019-04-27T12:51:26.202Z,42.48
2019-04-27T12:53:56.161Z,41.40
2019-04-27T12:56:26.165Z,42.38
2019-04-27T12:58:56.516Z,43.86
2019-04-27T13:01:26.021Z,46.50
2019-04-27T13:03:59.094Z,45.76
2019-04-27T13:06:26.526Z,47.93
2019-04-27T13:08:56.456Z,50.10
2019-04-27T13:11:26.863Z,49.95
2019-04-27T13:13:57.677Z,49.85
2019-04-27T13:16:28.862Z,51.78
2019-04-27T13:18:57.548Z,53.01
2019-04-27T13:21:26.939Z,55.09
2019-04-27T13:24:03.988Z,56.07
2019-04-27T13:26:27.102Z,56.68
2019-04-27T13:28:58.329Z,56.42
2019-04-27T13:31:27.026Z,53.84
2019-04-27T13:33:56.965Z,52.98
2019-04-27T13:36:27.206Z,53.44
2019-04-27T13:38:57.134Z,52.56
2019-04-27T13:41:32.636Z,54.34
2019-04-27T13:43:57.656Z,55.75
2019-04-27T13:46:27.411Z,55.68
2019-04-27T13:48:57.704Z,55.23
2019-04-27T13:51:27.947Z,55.63
2019-04-27T13:53:57.877Z,56.94
2019-04-27T13:56:28.160Z,56.40
2019-04-27T13:58:58.424Z,58.25
2019-04-27T14:01:28.401Z,58.15
2019-04-27T14:03:58.350Z,59.00
2019-04-27T14:06:28.315Z,58.05
2019-04-27T14:08:58.865Z,60.76
2019-04-27T14:11:29.054Z,60.64
2019-04-27T14:13:58.515Z,60.56
2019-04-27T14:16:29.067Z,61.05
2019-04-27T14:18:59.424Z,62.64
2019-04-27T14:21:29.582Z,63.30
2019-04-27T14:23:58.838Z,63.81
2019-04-27T14:26:28.799Z,64.16
2019-04-27T14:28:59.078Z,64.59
2019-04-27T14:31:29.315Z,65.26
2019-04-27T14:33:59.247Z,63.86
2019-04-27T14:36:29.531Z,64.91
2019-04-27T14:38:59.445Z,63.69
2019-04-27T14:41:29.661Z,65.60
2019-04-27T14:44:08.117Z,66.54
2019-04-27T14:46:30.458Z,66.98
2019-04-27T14:48:59.791Z,68.62
2019-04-27T14:51:30.042Z,66.90
2019-04-27T14:54:00.260Z,65.14
2019-04-27T14:56:30.194Z,66.22
2019-04-27T14:59:00.111Z,67.28
2019-04-27T15:01:30.079Z,69.21
2019-04-27T15:03:59.999Z,69.04
2019-04-27T15:06:30.293Z,67.24
2019-04-27T15:09:00.397Z,67.41
2019-04-27T15:11:31.640Z,66.58
2019-04-27T15:14:02.619Z,66.25
2019-04-27T15:16:30.528Z,66.61
2019-04-27T15:19:02.422Z,66.56
2019-04-27T15:21:32.650Z,64.68
2019-04-27T15:24:02.417Z,63.81
2019-04-27T15:26:30.925Z,63.84
2019-04-27T15:29:01.188Z,64.27
2019-04-27T15:31:31.181Z,65.89
2019-04-27T15:34:01.095Z,65.43
2019-04-27T15:36:31.072Z,65.11
2019-04-27T15:39:01.355Z,65.74
2019-04-27T15:41:31.681Z,66.24
2019-04-27T15:44:05.722Z,67.01
2019-04-27T15:46:33.886Z,67.79
2019-04-27T15:51:41.312Z,68.79
2019-04-27T15:54:11.500Z,69.43
2019-04-27T15:56:41.406Z,68.83
2019-04-27T15:59:11.339Z,70.00
2019-04-27T16:01:41.267Z,70.39
2019-04-27T16:04:11.572Z,70.63
2019-04-27T16:06:42.945Z,71.01
2019-04-27T16:09:15.971Z,71.51
2019-04-27T16:11:41.904Z,70.80
2019-04-27T16:14:11.842Z,71.83
2019-04-27T16:16:41.765Z,71.15
2019-04-27T16:19:11.779Z,70.71
2019-04-27T16:21:47.037Z,70.25
2019-04-27T16:24:12.637Z,70.17
2019-04-27T16:26:46.503Z,70.32
2019-04-27T16:31:51.552Z,71.21
2019-04-27T16:37:01.092Z,71.11
2019-04-27T16:39:31.325Z,70.80
2019-04-27T16:42:01.561Z,71.61
2019-04-27T16:44:31.512Z,70.87
2019-04-27T16:47:01.439Z,70.78
2019-04-27T16:49:31.360Z,71.01
2019-04-27T16:52:01.635Z,71.08
2019-04-27T16:54:31.549Z,70.32
2019-04-27T16:57:05.135Z,69.92
2019-04-27T17:02:01.788Z,69.51
2019-04-27T17:04:31.514Z,68.57
2019-04-27T17:07:01.256Z,69.21
2019-04-27T17:09:31.200Z,69.98
2019-04-27T17:12:01.150Z,67.40
2019-04-27T17:12:40.261Z,70.34
2019-04-27T17:14:35.032Z,68.45
2019-04-27T17:17:03.782Z,70.05
2019-04-27T17:19:31.273Z,71.80
2019-04-27T17:22:01.192Z,71.87
2019-04-27T17:24:33.594Z,71.44
2019-04-27T17:27:01.119Z,70.84
2019-04-27T17:29:31.048Z,72.02
2019-04-27T17:32:00.988Z,72.60
2019-04-27T17:34:30.904Z,72.79
2019-04-27T17:37:01.193Z,73.88
2019-04-27T17:39:31.499Z,74.18
2019-04-27T17:42:01.459Z,74.62
2019-04-27T17:44:31.750Z,75.51
2019-04-27T17:47:01.640Z,75.70
2019-04-27T17:49:31.821Z,76.43
2019-04-27T17:52:01.710Z,76.12
2019-04-27T17:54:31.906Z,75.13
2019-04-27T17:57:02.318Z,75.95
2019-04-27T17:59:32.261Z,75.65
2019-04-27T18:02:04.638Z,76.76
2019-04-27T18:04:32.840Z,76.96
2019-04-27T18:07:03.451Z,77.20
2019-04-27T18:09:33.441Z,77.79
2019-04-27T18:12:02.820Z,77.63
2019-04-27T18:14:39.484Z,77.94
2019-04-27T18:17:03.734Z,78.55
2019-04-27T18:19:33.432Z,78.00
2019-04-27T18:22:03.704Z,77.26
2019-04-27T18:24:34.029Z,77.73
2019-04-27T18:27:04.505Z,77.52
2019-04-27T18:29:34.257Z,77.88
2019-04-27T18:32:04.185Z,77.71
2019-04-27T18:34:34.126Z,77.79
2019-04-27T18:37:04.409Z,78.19
2019-04-27T18:39:33.944Z,77.08
2019-04-27T18:42:03.880Z,77.09
2019-04-27T18:44:34.154Z,76.98
2019-04-27T18:47:04.173Z,76.84
2019-04-27T18:49:34.182Z,76.28
2019-04-27T18:52:06.136Z,76.25
2019-04-27T18:54:38.374Z,75.52
2019-04-27T18:57:04.902Z,75.77
2019-04-27T18:59:34.264Z,75.94
2019-04-27T19:02:04.077Z,76.22
2019-04-27T19:04:34.271Z,75.28
2019-04-27T19:09:43.541Z,75.61
2019-04-27T19:12:13.745Z,75.66
2019-04-27T19:14:43.993Z,75.08
2019-04-27T19:17:13.923Z,75.11
2019-04-27T19:19:43.835Z,75.80
2019-04-27T19:22:14.107Z,77.01
2019-04-27T19:24:44.037Z,77.38
2019-04-27T19:27:18.341Z,77.41
2019-04-27T19:29:43.895Z,76.41
2019-04-27T19:34:53.148Z,77.30
2019-04-27T19:37:23.092Z,76.75
2019-04-27T19:39:53.382Z,77.69
2019-04-27T19:42:23.315Z,77.78
2019-04-27T19:44:53.244Z,77.37
2019-04-27T19:47:23.176Z,77.22
2019-04-27T19:49:53.091Z,77.78
2019-04-27T19:55:02.356Z,77.91
2019-04-27T19:57:38.362Z,78.49
2019-04-27T20:00:02.190Z,78.19
2019-04-27T20:02:32.117Z,77.96
2019-04-27T20:05:02.307Z,78.56
2019-04-27T20:07:32.237Z,78.17
2019-04-27T20:10:02.155Z,78.17
2019-04-27T20:12:32.096Z,77.92
2019-04-27T20:15:02.424Z,77.43
2019-04-27T20:17:31.971Z,77.30
2019-04-27T20:20:02.238Z,77.49
2019-04-27T20:22:32.151Z,77.02
2019-04-27T20:25:02.422Z,77.73
2019-04-27T20:27:45.201Z,77.84
2019-04-27T20:30:03.430Z,77.41
2019-04-27T20:32:32.908Z,77.07
2019-04-27T20:35:02.840Z,76.54
2019-04-27T20:37:33.128Z,76.55
2019-04-27T20:40:03.044Z,76.57
2019-04-27T20:42:32.962Z,77.53
2019-04-27T20:45:03.159Z,77.17
2019-04-27T20:47:33.075Z,76.97
2019-04-27T20:50:03.024Z,76.58
2019-04-27T20:55:12.548Z,77.17
2019-04-27T20:57:42.461Z,77.17
2019-04-27T21:00:12.678Z,76.89
2019-04-27T21:02:42.598Z,77.07
2019-04-27T21:05:12.692Z,76.48
2019-04-27T21:10:22.468Z,76.56
2019-04-27T21:12:52.379Z,76.62
2019-04-27T21:15:22.617Z,76.39
2019-04-27T21:17:52.840Z,75.91
2019-04-27T21:20:22.765Z,76.16
2019-04-27T21:22:53.459Z,75.75
2019-04-27T21:25:22.606Z,75.94
2019-04-27T21:27:52.772Z,75.86
2019-04-27T21:30:22.996Z,76.02
2019-04-27T21:32:52.986Z,75.94
2019-04-27T21:35:22.859Z,75.84
2019-04-27T21:37:52.769Z,76.77
2019-04-27T21:40:22.708Z,76.75
2019-04-27T21:42:52.622Z,75.85
2019-04-27T21:45:22.561Z,76.56
2019-04-27T21:47:52.483Z,76.25
2019-04-27T21:50:23.175Z,76.01
2019-04-27T21:52:52.637Z,76.15
2019-04-27T21:55:22.572Z,76.97
2019-04-27T21:57:52.758Z,76.49
2019-04-27T22:03:07.963Z,75.53
2019-04-27T22:05:38.164Z,75.83
2019-04-27T22:08:08.387Z,75.70
2019-04-27T22:10:38.327Z,75.44
2019-04-27T22:13:08.524Z,75.21
2019-04-27T22:18:18.063Z,75.59
2019-04-27T22:20:48.295Z,75.88
2019-04-27T22:23:18.226Z,76.29
2019-04-27T22:25:48.163Z,75.52
2019-04-27T22:28:18.105Z,75.49
2019-04-27T22:30:48.372Z,75.88
2019-04-27T22:33:18.286Z,76.39
2019-04-27T22:35:48.222Z,75.65
2019-04-27T22:38:18.425Z,76.19
2019-04-27T22:40:48.356Z,75.91
2019-04-27T22:43:18.279Z,75.90
2019-04-27T22:45:48.208Z,76.41
2019-04-27T22:48:18.154Z,76.73
2019-04-27T22:50:48.129Z,77.07
2019-04-27T22:53:18.055Z,76.70
2019-04-27T22:55:47.983Z,76.32
2019-04-27T22:58:18.156Z,76.20
2019-04-27T23:00:48.083Z,76.64
2019-04-27T23:03:18.394Z,76.72
2019-04-27T23:08:27.640Z,76.82
2019-04-27T23:10:57.920Z,76.78
2019-04-27T23:13:27.825Z,76.96
2019-04-27T23:15:57.746Z,77.35
2019-04-27T23:18:27.967Z,77.58
2019-04-27T23:20:58.217Z,77.87
2019-04-27T23:23:28.131Z,77.88
2019-04-27T23:25:58.064Z,77.71
2019-04-27T23:28:28.338Z,77.66
2019-04-27T23:30:58.555Z,77.97
2019-04-27T23:33:28.500Z,78.43
2019-04-27T23:35:58.690Z,78.53
2019-04-27T23:38:30.865Z,78.66
2019-04-27T23:40:58.861Z,78.87
2019-04-27T23:43:29.152Z,78.71
2019-04-27T23:45:59.068Z,78.52
2019-04-27T23:48:29.284Z,78.88
2019-04-27T23:50:59.215Z,78.84
2019-04-27T23:53:29.167Z,78.50
2019-04-27T23:55:59.088Z,79.03
